sensor_id;sensor_type;location;lat;lon;timestamp;temperature;humidity
12504;DHT22;6316;48.118;-1.690;2023-11-19T00:02:07;15.30;99.90
12504;DHT22;6316;48.118;-1.690;2023-11-19T00:04:37;15.30;99.90
12504;DHT22;6316;48.118;-1.690;2023-11-19T00:07:04;15.30;99.90
12504;DHT22;6316;48.118;-1.690;2023-11-19T00:09:32;15.30;99.90
12504;DHT22;6316;48.118;-1.690;2023-11-19T00:11:58;15.30;99.90
12504;DHT22;6316;48.118;-1.690;2023-11-19T00:14:26;15.30;99.90
12504;DHT22;6316;48.118;-1.690;2023-11-19T00:16:51;15.30;99.90
12504;DHT22;6316;48.118;-1.690;2023-11-19T00:19:17;15.30;99.90
12504;DHT22;6316;48.118;-1.690;2023-11-19T00:21:43;15.20;99.90
12504;DHT22;6316;48.118;-1.690;2023-11-19T00:24:09;15.20;99.90
12504;DHT22;6316;48.118;-1.690;2023-11-19T00:26:34;15.20;99.90
12504;DHT22;6316;48.118;-1.690;2023-11-19T00:29:00;15.10;99.90
12504;DHT22;6316;48.118;-1.690;2023-11-19T00:31:26;15.10;99.90
12504;DHT22;6316;48.118;-1.690;2023-11-19T00:33:53;15.10;99.90
12504;DHT22;6316;48.118;-1.690;2023-11-19T00:36:19;15.10;99.90
12504;DHT22;6316;48.118;-1.690;2023-11-19T00:38:45;15.00;99.90
12504;DHT22;6316;48.118;-1.690;2023-11-19T00:41:10;15.00;99.90
12504;DHT22;6316;48.118;-1.690;2023-11-19T00:43:36;15.00;99.90
12504;DHT22;6316;48.118;-1.690;2023-11-19T00:46:02;14.90;99.90
12504;DHT22;6316;48.118;-1.690;2023-11-19T00:48:28;14.90;99.90
12504;DHT22;6316;48.118;-1.690;2023-11-19T00:50:54;14.90;99.90
12504;DHT22;6316;48.118;-1.690;2023-11-19T00:53:20;14.90;99.90
12504;DHT22;6316;48.118;-1.690;2023-11-19T00:55:45;14.90;99.90
12504;DHT22;6316;48.118;-1.690;2023-11-19T00:58:12;14.90;99.90
12504;DHT22;6316;48.118;-1.690;2023-11-19T01:00:38;14.90;99.90
12504;DHT22;6316;48.118;-1.690;2023-11-19T01:03:03;14.80;99.90
12504;DHT22;6316;48.118;-1.690;2023-11-19T01:05:29;14.80;99.90
12504;DHT22;6316;48.118;-1.690;2023-11-19T01:07:54;14.80;99.90
12504;DHT22;6316;48.118;-1.690;2023-11-19T01:10:21;14.70;99.90
12504;DHT22;6316;48.118;-1.690;2023-11-19T01:12:46;14.70;99.90
12504;DHT22;6316;48.118;-1.690;2023-11-19T01:15:12;14.70;99.90
12504;DHT22;6316;48.118;-1.690;2023-11-19T01:17:38;14.70;99.90
12504;DHT22;6316;48.118;-1.690;2023-11-19T01:20:05;14.70;99.90
12504;DHT22;6316;48.118;-1.690;2023-11-19T01:22:32;14.70;99.90
12504;DHT22;6316;48.118;-1.690;2023-11-19T01:24:58;14.70;99.90
12504;DHT22;6316;48.118;-1.690;2023-11-19T01:27:24;14.80;99.90
12504;DHT22;6316;48.118;-1.690;2023-11-19T01:29:50;14.80;99.90
12504;DHT22;6316;48.118;-1.690;2023-11-19T01:32:15;14.80;99.90
12504;DHT22;6316;48.118;-1.690;2023-11-19T01:34:41;14.80;99.90
12504;DHT22;6316;48.118;-1.690;2023-11-19T01:37:07;14.80;99.90
12504;DHT22;6316;48.118;-1.690;2023-11-19T01:39:34;14.80;99.90
12504;DHT22;6316;48.118;-1.690;2023-11-19T01:42:00;14.80;99.90
12504;DHT22;6316;48.118;-1.690;2023-11-19T01:44:26;14.80;99.90
12504;DHT22;6316;48.118;-1.690;2023-11-19T01:46:52;14.80;99.90
12504;DHT22;6316;48.118;-1.690;2023-11-19T01:49:18;14.70;99.90
12504;DHT22;6316;48.118;-1.690;2023-11-19T01:51:45;14.70;99.90
12504;DHT22;6316;48.118;-1.690;2023-11-19T01:54:12;14.70;99.90
12504;DHT22;6316;48.118;-1.690;2023-11-19T01:56:39;14.70;99.90
12504;DHT22;6316;48.118;-1.690;2023-11-19T01:59:07;14.60;99.90
12504;DHT22;6316;48.118;-1.690;2023-11-19T02:01:35;14.60;99.90
12504;DHT22;6316;48.118;-1.690;2023-11-19T02:04:08;14.60;99.90
12504;DHT22;6316;48.118;-1.690;2023-11-19T02:06:40;14.60;99.90
12504;DHT22;6316;48.118;-1.690;2023-11-19T02:09:06;14.60;99.90
12504;DHT22;6316;48.118;-1.690;2023-11-19T02:11:34;14.60;99.90
12504;DHT22;6316;48.118;-1.690;2023-11-19T02:14:00;14.50;99.90
12504;DHT22;6316;48.118;-1.690;2023-11-19T02:16:26;14.50;99.90
12504;DHT22;6316;48.118;-1.690;2023-11-19T02:18:51;14.50;99.90
12504;DHT22;6316;48.118;-1.690;2023-11-19T02:21:17;14.40;99.90
12504;DHT22;6316;48.118;-1.690;2023-11-19T02:23:43;14.30;99.90
12504;DHT22;6316;48.118;-1.690;2023-11-19T02:28:50;14.30;99.90
12504;DHT22;6316;48.118;-1.690;2023-11-19T02:31:15;14.20;99.90
12504;DHT22;6316;48.118;-1.690;2023-11-19T02:33:41;14.20;99.90
12504;DHT22;6316;48.118;-1.690;2023-11-19T02:36:08;14.20;99.90
12504;DHT22;6316;48.118;-1.690;2023-11-19T02:38:34;14.10;99.90
12504;DHT22;6316;48.118;-1.690;2023-11-19T02:41:03;14.10;99.90
12504;DHT22;6316;48.118;-1.690;2023-11-19T02:43:31;14.00;99.90
12504;DHT22;6316;48.118;-1.690;2023-11-19T02:46:03;14.00;99.90
12504;DHT22;6316;48.118;-1.690;2023-11-19T02:48:32;14.00;99.90
12504;DHT22;6316;48.118;-1.690;2023-11-19T02:50:57;14.00;99.90
12504;DHT22;6316;48.118;-1.690;2023-11-19T02:53:23;13.90;99.90
12504;DHT22;6316;48.118;-1.690;2023-11-19T02:55:50;13.90;99.90
12504;DHT22;6316;48.118;-1.690;2023-11-19T02:58:16;13.90;99.90
12504;DHT22;6316;48.118;-1.690;2023-11-19T03:00:46;13.90;99.90
12504;DHT22;6316;48.118;-1.690;2023-11-19T03:03:19;13.80;99.90
12504;DHT22;6316;48.118;-1.690;2023-11-19T03:05:47;13.80;99.90
12504;DHT22;6316;48.118;-1.690;2023-11-19T03:08:14;13.80;99.90
12504;DHT22;6316;48.118;-1.690;2023-11-19T03:10:40;13.80;99.90
12504;DHT22;6316;48.118;-1.690;2023-11-19T03:13:11;13.80;99.90
12504;DHT22;6316;48.118;-1.690;2023-11-19T03:15:41;13.70;99.90
12504;DHT22;6316;48.118;-1.690;2023-11-19T03:18:07;13.70;99.90
12504;DHT22;6316;48.118;-1.690;2023-11-19T03:20:33;13.70;99.90
12504;DHT22;6316;48.118;-1.690;2023-11-19T03:22:59;13.70;99.90
12504;DHT22;6316;48.118;-1.690;2023-11-19T03:25:25;13.70;99.90
12504;DHT22;6316;48.118;-1.690;2023-11-19T03:27:59;13.60;99.90
12504;DHT22;6316;48.118;-1.690;2023-11-19T03:30:26;13.60;99.90
12504;DHT22;6316;48.118;-1.690;2023-11-19T03:32:51;13.60;99.90
12504;DHT22;6316;48.118;-1.690;2023-11-19T03:35:17;13.60;99.90
12504;DHT22;6316;48.118;-1.690;2023-11-19T03:37:43;13.60;99.90
12504;DHT22;6316;48.118;-1.690;2023-11-19T03:40:09;13.50;99.90
12504;DHT22;6316;48.118;-1.690;2023-11-19T03:42:35;13.50;99.90
12504;DHT22;6316;48.118;-1.690;2023-11-19T03:45:01;13.50;99.90
12504;DHT22;6316;48.118;-1.690;2023-11-19T03:47:29;13.50;99.90
12504;DHT22;6316;48.118;-1.690;2023-11-19T03:49:54;13.40;99.90
12504;DHT22;6316;48.118;-1.690;2023-11-19T03:52:20;13.40;99.90
12504;DHT22;6316;48.118;-1.690;2023-11-19T03:54:46;13.40;99.90
12504;DHT22;6316;48.118;-1.690;2023-11-19T03:57:12;13.40;99.90
12504;DHT22;6316;48.118;-1.690;2023-11-19T03:59:39;13.40;99.90
12504;DHT22;6316;48.118;-1.690;2023-11-19T04:02:05;13.30;99.90
12504;DHT22;6316;48.118;-1.690;2023-11-19T04:04:32;13.30;99.90
12504;DHT22;6316;48.118;-1.690;2023-11-19T04:06:57;13.30;99.90
12504;DHT22;6316;48.118;-1.690;2023-11-19T04:09:24;13.30;99.90
12504;DHT22;6316;48.118;-1.690;2023-11-19T04:11:49;13.30;99.90
12504;DHT22;6316;48.118;-1.690;2023-11-19T04:14:15;13.20;99.90
12504;DHT22;6316;48.118;-1.690;2023-11-19T04:16:44;13.20;99.90
12504;DHT22;6316;48.118;-1.690;2023-11-19T04:19:10;13.20;99.90
12504;DHT22;6316;48.118;-1.690;2023-11-19T04:21:36;13.20;99.90
12504;DHT22;6316;48.118;-1.690;2023-11-19T04:24:02;13.20;99.90
12504;DHT22;6316;48.118;-1.690;2023-11-19T04:26:27;13.20;99.90
12504;DHT22;6316;48.118;-1.690;2023-11-19T04:28:53;13.20;99.90
12504;DHT22;6316;48.118;-1.690;2023-11-19T04:31:19;13.20;99.90
12504;DHT22;6316;48.118;-1.690;2023-11-19T04:33:44;13.20;99.90
12504;DHT22;6316;48.118;-1.690;2023-11-19T04:36:10;13.20;99.90
12504;DHT22;6316;48.118;-1.690;2023-11-19T04:38:37;13.10;99.90
12504;DHT22;6316;48.118;-1.690;2023-11-19T04:41:04;13.10;99.90
12504;DHT22;6316;48.118;-1.690;2023-11-19T04:43:31;13.10;99.90
12504;DHT22;6316;48.118;-1.690;2023-11-19T04:45:57;13.10;99.90
12504;DHT22;6316;48.118;-1.690;2023-11-19T04:48:24;13.10;99.90
12504;DHT22;6316;48.118;-1.690;2023-11-19T04:50:50;13.00;99.90
12504;DHT22;6316;48.118;-1.690;2023-11-19T04:53:18;13.00;99.90
12504;DHT22;6316;48.118;-1.690;2023-11-19T04:55:43;13.00;99.90
12504;DHT22;6316;48.118;-1.690;2023-11-19T04:58:09;13.00;99.90
12504;DHT22;6316;48.118;-1.690;2023-11-19T05:00:34;12.90;99.90
12504;DHT22;6316;48.118;-1.690;2023-11-19T05:03:00;12.90;99.90
12504;DHT22;6316;48.118;-1.690;2023-11-19T05:05:26;12.90;99.90
12504;DHT22;6316;48.118;-1.690;2023-11-19T05:07:51;12.90;99.90
12504;DHT22;6316;48.118;-1.690;2023-11-19T05:10:17;12.80;99.90
12504;DHT22;6316;48.118;-1.690;2023-11-19T05:12:42;12.80;99.90
12504;DHT22;6316;48.118;-1.690;2023-11-19T05:15:08;12.80;99.90
12504;DHT22;6316;48.118;-1.690;2023-11-19T05:17:34;12.80;99.90
12504;DHT22;6316;48.118;-1.690;2023-11-19T05:20:00;12.80;99.90
12504;DHT22;6316;48.118;-1.690;2023-11-19T05:22:25;12.70;99.90
12504;DHT22;6316;48.118;-1.690;2023-11-19T05:24:51;12.70;99.90
12504;DHT22;6316;48.118;-1.690;2023-11-19T05:27:17;12.70;99.90
12504;DHT22;6316;48.118;-1.690;2023-11-19T05:29:43;12.70;99.90
12504;DHT22;6316;48.118;-1.690;2023-11-19T05:32:09;12.80;99.90
12504;DHT22;6316;48.118;-1.690;2023-11-19T05:34:35;12.80;99.90
12504;DHT22;6316;48.118;-1.690;2023-11-19T05:37:01;12.90;99.90
12504;DHT22;6316;48.118;-1.690;2023-11-19T05:39:27;12.90;99.90
12504;DHT22;6316;48.118;-1.690;2023-11-19T05:41:53;12.90;99.90
12504;DHT22;6316;48.118;-1.690;2023-11-19T05:44:19;12.90;99.90
12504;DHT22;6316;48.118;-1.690;2023-11-19T05:46:45;12.90;99.90
12504;DHT22;6316;48.118;-1.690;2023-11-19T05:49:11;12.90;99.90
12504;DHT22;6316;48.118;-1.690;2023-11-19T05:51:38;12.90;99.90
12504;DHT22;6316;48.118;-1.690;2023-11-19T05:54:08;12.90;99.90
12504;DHT22;6316;48.118;-1.690;2023-11-19T05:56:33;12.90;99.90
12504;DHT22;6316;48.118;-1.690;2023-11-19T05:58:59;12.80;99.90
12504;DHT22;6316;48.118;-1.690;2023-11-19T06:01:26;12.80;99.90
12504;DHT22;6316;48.118;-1.690;2023-11-19T06:03:52;12.80;99.90
12504;DHT22;6316;48.118;-1.690;2023-11-19T06:06:18;12.80;99.90
12504;DHT22;6316;48.118;-1.690;2023-11-19T06:08:44;12.70;99.90
12504;DHT22;6316;48.118;-1.690;2023-11-19T06:11:10;12.80;99.90
12504;DHT22;6316;48.118;-1.690;2023-11-19T06:13:40;12.80;99.90
12504;DHT22;6316;48.118;-1.690;2023-11-19T06:16:06;12.90;99.90
12504;DHT22;6316;48.118;-1.690;2023-11-19T06:18:32;12.90;99.90
12504;DHT22;6316;48.118;-1.690;2023-11-19T06:20:57;12.90;99.90
12504;DHT22;6316;48.118;-1.690;2023-11-19T06:23:23;13.00;99.90
12504;DHT22;6316;48.118;-1.690;2023-11-19T06:25:49;13.00;99.90
12504;DHT22;6316;48.118;-1.690;2023-11-19T06:28:14;13.00;99.90
12504;DHT22;6316;48.118;-1.690;2023-11-19T06:30:40;13.10;99.90
12504;DHT22;6316;48.118;-1.690;2023-11-19T06:33:07;13.10;99.90
12504;DHT22;6316;48.118;-1.690;2023-11-19T06:35:33;13.10;99.90
12504;DHT22;6316;48.118;-1.690;2023-11-19T06:38:04;13.10;99.90
12504;DHT22;6316;48.118;-1.690;2023-11-19T06:40:34;13.00;99.90
12504;DHT22;6316;48.118;-1.690;2023-11-19T06:43:03;13.00;99.90
12504;DHT22;6316;48.118;-1.690;2023-11-19T06:45:33;13.00;99.90
12504;DHT22;6316;48.118;-1.690;2023-11-19T06:48:03;12.90;99.90
12504;DHT22;6316;48.118;-1.690;2023-11-19T06:50:29;12.90;99.90
12504;DHT22;6316;48.118;-1.690;2023-11-19T06:52:55;12.80;99.90
12504;DHT22;6316;48.118;-1.690;2023-11-19T06:55:20;12.80;99.90
12504;DHT22;6316;48.118;-1.690;2023-11-19T06:57:46;12.70;99.90
12504;DHT22;6316;48.118;-1.690;2023-11-19T07:00:12;12.70;99.90
12504;DHT22;6316;48.118;-1.690;2023-11-19T07:02:38;12.70;99.90
12504;DHT22;6316;48.118;-1.690;2023-11-19T07:05:03;12.60;99.90
12504;DHT22;6316;48.118;-1.690;2023-11-19T07:07:33;12.60;99.90
12504;DHT22;6316;48.118;-1.690;2023-11-19T07:09:59;12.60;99.90
12504;DHT22;6316;48.118;-1.690;2023-11-19T07:12:24;12.60;99.90
12504;DHT22;6316;48.118;-1.690;2023-11-19T07:14:53;12.60;99.90
12504;DHT22;6316;48.118;-1.690;2023-11-19T07:17:20;12.50;99.90
12504;DHT22;6316;48.118;-1.690;2023-11-19T07:19:47;12.50;99.90
12504;DHT22;6316;48.118;-1.690;2023-11-19T07:22:13;12.60;99.90
12504;DHT22;6316;48.118;-1.690;2023-11-19T07:24:39;12.50;99.90
12504;DHT22;6316;48.118;-1.690;2023-11-19T07:27:06;12.50;99.90
12504;DHT22;6316;48.118;-1.690;2023-11-19T07:29:32;12.50;99.90
12504;DHT22;6316;48.118;-1.690;2023-11-19T07:31:57;12.50;99.90
12504;DHT22;6316;48.118;-1.690;2023-11-19T07:34:24;12.50;99.90
12504;DHT22;6316;48.118;-1.690;2023-11-19T07:36:50;12.50;99.90
12504;DHT22;6316;48.118;-1.690;2023-11-19T07:39:15;12.50;99.90
12504;DHT22;6316;48.118;-1.690;2023-11-19T07:41:41;12.50;99.90
12504;DHT22;6316;48.118;-1.690;2023-11-19T07:44:07;12.50;99.90
12504;DHT22;6316;48.118;-1.690;2023-11-19T07:46:32;12.50;99.90
12504;DHT22;6316;48.118;-1.690;2023-11-19T07:48:58;12.50;99.90
12504;DHT22;6316;48.118;-1.690;2023-11-19T07:51:24;12.50;99.90
12504;DHT22;6316;48.118;-1.690;2023-11-19T07:53:49;12.50;99.90
12504;DHT22;6316;48.118;-1.690;2023-11-19T07:56:15;12.60;99.90
12504;DHT22;6316;48.118;-1.690;2023-11-19T07:58:41;12.60;99.90
12504;DHT22;6316;48.118;-1.690;2023-11-19T08:01:07;12.60;99.90
12504;DHT22;6316;48.118;-1.690;2023-11-19T08:03:33;12.60;99.90
12504;DHT22;6316;48.118;-1.690;2023-11-19T08:06:03;12.60;99.90
12504;DHT22;6316;48.118;-1.690;2023-11-19T08:08:28;12.60;99.90
12504;DHT22;6316;48.118;-1.690;2023-11-19T08:10:58;12.70;99.90
12504;DHT22;6316;48.118;-1.690;2023-11-19T08:13:24;12.70;99.90
12504;DHT22;6316;48.118;-1.690;2023-11-19T08:15:51;12.70;99.90
12504;DHT22;6316;48.118;-1.690;2023-11-19T08:18:17;12.80;99.90
12504;DHT22;6316;48.118;-1.690;2023-11-19T08:20:44;12.80;99.90
12504;DHT22;6316;48.118;-1.690;2023-11-19T08:23:10;12.80;99.90
12504;DHT22;6316;48.118;-1.690;2023-11-19T08:25:36;12.90;99.90
12504;DHT22;6316;48.118;-1.690;2023-11-19T08:28:02;12.90;99.90
12504;DHT22;6316;48.118;-1.690;2023-11-19T08:30:29;12.90;99.90
12504;DHT22;6316;48.118;-1.690;2023-11-19T08:32:55;13.00;99.90
12504;DHT22;6316;48.118;-1.690;2023-11-19T08:35:21;13.00;99.90
12504;DHT22;6316;48.118;-1.690;2023-11-19T08:37:47;13.00;99.90
12504;DHT22;6316;48.118;-1.690;2023-11-19T08:40:13;13.10;99.90
12504;DHT22;6316;48.118;-1.690;2023-11-19T08:42:40;13.10;99.90
12504;DHT22;6316;48.118;-1.690;2023-11-19T08:45:07;13.10;99.90
12504;DHT22;6316;48.118;-1.690;2023-11-19T08:47:35;13.10;99.90
12504;DHT22;6316;48.118;-1.690;2023-11-19T08:50:01;13.20;99.90
12504;DHT22;6316;48.118;-1.690;2023-11-19T08:52:27;13.20;99.90
12504;DHT22;6316;48.118;-1.690;2023-11-19T08:54:52;13.30;99.90
12504;DHT22;6316;48.118;-1.690;2023-11-19T08:57:18;13.30;99.90
12504;DHT22;6316;48.118;-1.690;2023-11-19T08:59:44;13.40;99.90
12504;DHT22;6316;48.118;-1.690;2023-11-19T09:02:11;13.40;99.90
12504;DHT22;6316;48.118;-1.690;2023-11-19T09:04:37;13.50;99.90
12504;DHT22;6316;48.118;-1.690;2023-11-19T09:07:03;13.50;99.90
12504;DHT22;6316;48.118;-1.690;2023-11-19T09:09:29;13.60;99.90
12504;DHT22;6316;48.118;-1.690;2023-11-19T09:11:55;13.60;99.90
12504;DHT22;6316;48.118;-1.690;2023-11-19T09:14:21;13.60;99.90
12504;DHT22;6316;48.118;-1.690;2023-11-19T09:16:51;13.70;99.90
12504;DHT22;6316;48.118;-1.690;2023-11-19T09:19:18;13.70;99.90
12504;DHT22;6316;48.118;-1.690;2023-11-19T09:21:44;13.80;99.90
12504;DHT22;6316;48.118;-1.690;2023-11-19T09:24:14;13.80;99.90
12504;DHT22;6316;48.118;-1.690;2023-11-19T09:26:44;13.90;99.90
12504;DHT22;6316;48.118;-1.690;2023-11-19T09:29:13;14.00;99.90
12504;DHT22;6316;48.118;-1.690;2023-11-19T09:31:40;14.00;99.90
12504;DHT22;6316;48.118;-1.690;2023-11-19T09:34:06;14.10;99.90
12504;DHT22;6316;48.118;-1.690;2023-11-19T09:36:32;14.10;99.90
12504;DHT22;6316;48.118;-1.690;2023-11-19T09:38:57;14.20;99.90
12504;DHT22;6316;48.118;-1.690;2023-11-19T09:41:25;14.20;99.90
12504;DHT22;6316;48.118;-1.690;2023-11-19T09:43:53;14.30;99.90
12504;DHT22;6316;48.118;-1.690;2023-11-19T09:46:19;14.30;99.90
12504;DHT22;6316;48.118;-1.690;2023-11-19T09:48:46;14.30;99.90
12504;DHT22;6316;48.118;-1.690;2023-11-19T09:51:14;14.30;99.90
12504;DHT22;6316;48.118;-1.690;2023-11-19T09:53:40;14.30;99.90
12504;DHT22;6316;48.118;-1.690;2023-11-19T09:56:07;14.30;99.90
12504;DHT22;6316;48.118;-1.690;2023-11-19T09:58:35;14.40;99.90
12504;DHT22;6316;48.118;-1.690;2023-11-19T10:01:01;14.60;99.90
12504;DHT22;6316;48.118;-1.690;2023-11-19T10:03:35;14.70;99.90
12504;DHT22;6316;48.118;-1.690;2023-11-19T10:06:09;14.90;99.90
12504;DHT22;6316;48.118;-1.690;2023-11-19T10:08:38;15.00;99.90
12504;DHT22;6316;48.118;-1.690;2023-11-19T10:11:08;15.10;99.90
12504;DHT22;6316;48.118;-1.690;2023-11-19T10:13:35;15.10;99.90
12504;DHT22;6316;48.118;-1.690;2023-11-19T10:16:07;15.10;99.90
12504;DHT22;6316;48.118;-1.690;2023-11-19T10:18:34;15.10;99.90
12504;DHT22;6316;48.118;-1.690;2023-11-19T10:21:10;15.20;99.90
12504;DHT22;6316;48.118;-1.690;2023-11-19T10:23:50;15.10;99.90
12504;DHT22;6316;48.118;-1.690;2023-11-19T10:26:19;15.20;99.90
12504;DHT22;6316;48.118;-1.690;2023-11-19T10:28:49;15.20;99.90
12504;DHT22;6316;48.118;-1.690;2023-11-19T10:31:20;15.20;99.90
12504;DHT22;6316;48.118;-1.690;2023-11-19T10:33:50;15.20;99.90
12504;DHT22;6316;48.118;-1.690;2023-11-19T10:36:16;15.20;99.90
12504;DHT22;6316;48.118;-1.690;2023-11-19T10:38:55;15.30;99.90
12504;DHT22;6316;48.118;-1.690;2023-11-19T10:41:32;15.30;99.90
12504;DHT22;6316;48.118;-1.690;2023-11-19T10:43:58;15.40;99.90
12504;DHT22;6316;48.118;-1.690;2023-11-19T10:46:37;15.40;99.90
12504;DHT22;6316;48.118;-1.690;2023-11-19T10:49:03;15.50;99.90
12504;DHT22;6316;48.118;-1.690;2023-11-19T10:51:30;15.60;99.90
12504;DHT22;6316;48.118;-1.690;2023-11-19T10:54:04;15.60;99.90
12504;DHT22;6316;48.118;-1.690;2023-11-19T10:56:32;15.70;99.90
12504;DHT22;6316;48.118;-1.690;2023-11-19T10:58:59;15.80;99.90
12504;DHT22;6316;48.118;-1.690;2023-11-19T11:01:32;15.80;99.90
12504;DHT22;6316;48.118;-1.690;2023-11-19T11:03:59;15.90;99.90
12504;DHT22;6316;48.118;-1.690;2023-11-19T11:06:27;15.90;99.90
12504;DHT22;6316;48.118;-1.690;2023-11-19T11:08:53;16.00;99.90
12504;DHT22;6316;48.118;-1.690;2023-11-19T11:11:19;16.10;99.90
12504;DHT22;6316;48.118;-1.690;2023-11-19T11:13:50;16.10;99.90
12504;DHT22;6316;48.118;-1.690;2023-11-19T11:16:18;16.30;99.90
12504;DHT22;6316;48.118;-1.690;2023-11-19T11:18:47;16.30;99.90
12504;DHT22;6316;48.118;-1.690;2023-11-19T11:21:17;16.30;99.90
12504;DHT22;6316;48.118;-1.690;2023-11-19T11:32:37;16.40;99.90
12504;DHT22;6316;48.118;-1.690;2023-11-19T11:37:46;16.50;99.90
12504;DHT22;6316;48.118;-1.690;2023-11-19T11:40:16;16.40;99.90
12504;DHT22;6316;48.118;-1.690;2023-11-19T11:42:46;16.40;99.90
12504;DHT22;6316;48.118;-1.690;2023-11-19T11:45:14;16.30;99.90
12504;DHT22;6316;48.118;-1.690;2023-11-19T11:48:04;16.30;99.90
12504;DHT22;6316;48.118;-1.690;2023-11-19T11:50:33;16.30;99.90
12504;DHT22;6316;48.118;-1.690;2023-11-19T11:55:36;16.30;99.90
12504;DHT22;6316;48.118;-1.690;2023-11-19T11:58:06;16.30;99.90
12504;DHT22;6316;48.118;-1.690;2023-11-19T12:00:33;16.30;99.90
12504;DHT22;6316;48.118;-1.690;2023-11-19T12:03:04;16.40;99.90
12504;DHT22;6316;48.118;-1.690;2023-11-19T12:05:30;16.50;99.90
12504;DHT22;6316;48.118;-1.690;2023-11-19T12:08:02;16.60;99.90
12504;DHT22;6316;48.118;-1.690;2023-11-19T12:10:30;16.70;99.90
12504;DHT22;6316;48.118;-1.690;2023-11-19T12:13:00;16.70;99.90
12504;DHT22;6316;48.118;-1.690;2023-11-19T12:15:26;16.80;99.90
12504;DHT22;6316;48.118;-1.690;2023-11-19T12:17:56;16.80;99.90
12504;DHT22;6316;48.118;-1.690;2023-11-19T12:20:23;16.70;99.90
12504;DHT22;6316;48.118;-1.690;2023-11-19T12:22:49;16.70;99.90
12504;DHT22;6316;48.118;-1.690;2023-11-19T12:25:17;16.60;99.90
12504;DHT22;6316;48.118;-1.690;2023-11-19T12:27:48;16.60;99.90
12504;DHT22;6316;48.118;-1.690;2023-11-19T12:30:26;16.60;99.90
12504;DHT22;6316;48.118;-1.690;2023-11-19T12:32:52;16.60;99.90
12504;DHT22;6316;48.118;-1.690;2023-11-19T12:35:20;16.70;99.90
12504;DHT22;6316;48.118;-1.690;2023-11-19T12:37:47;16.60;99.90
12504;DHT22;6316;48.118;-1.690;2023-11-19T12:42:48;16.90;99.90
12504;DHT22;6316;48.118;-1.690;2023-11-19T12:45:14;16.90;99.90
12504;DHT22;6316;48.118;-1.690;2023-11-19T12:47:44;16.90;99.90
12504;DHT22;6316;48.118;-1.690;2023-11-19T12:50:13;16.90;99.90
12504;DHT22;6316;48.118;-1.690;2023-11-19T12:52:39;16.90;99.90
12504;DHT22;6316;48.118;-1.690;2023-11-19T12:55:06;16.90;99.90
12504;DHT22;6316;48.118;-1.690;2023-11-19T12:57:49;16.90;99.90
12504;DHT22;6316;48.118;-1.690;2023-11-19T13:00:25;17.00;99.90
12504;DHT22;6316;48.118;-1.690;2023-11-19T13:02:52;17.00;99.90
12504;DHT22;6316;48.118;-1.690;2023-11-19T13:05:29;17.10;99.90
12504;DHT22;6316;48.118;-1.690;2023-11-19T13:08:00;17.20;99.90
12504;DHT22;6316;48.118;-1.690;2023-11-19T13:10:27;17.10;99.90
12504;DHT22;6316;48.118;-1.690;2023-11-19T13:15:31;17.10;99.90
12504;DHT22;6316;48.118;-1.690;2023-11-19T13:17:57;17.10;99.90
12504;DHT22;6316;48.118;-1.690;2023-11-19T13:20:23;17.10;99.90
12504;DHT22;6316;48.118;-1.690;2023-11-19T13:22:59;17.10;99.90
12504;DHT22;6316;48.118;-1.690;2023-11-19T13:25:29;17.00;99.90
12504;DHT22;6316;48.118;-1.690;2023-11-19T13:27:55;17.00;99.90
12504;DHT22;6316;48.118;-1.690;2023-11-19T13:30:22;17.00;99.90
12504;DHT22;6316;48.118;-1.690;2023-11-19T13:32:49;16.90;99.90
12504;DHT22;6316;48.118;-1.690;2023-11-19T13:35:16;16.90;99.90
12504;DHT22;6316;48.118;-1.690;2023-11-19T13:37:42;16.90;99.90
12504;DHT22;6316;48.118;-1.690;2023-11-19T13:40:08;16.90;99.90
12504;DHT22;6316;48.118;-1.690;2023-11-19T13:42:40;16.90;99.90
12504;DHT22;6316;48.118;-1.690;2023-11-19T13:45:08;16.90;99.90
12504;DHT22;6316;48.118;-1.690;2023-11-19T13:47:38;16.90;99.90
12504;DHT22;6316;48.118;-1.690;2023-11-19T13:50:24;16.80;99.90
12504;DHT22;6316;48.118;-1.690;2023-11-19T13:52:51;16.80;99.90
12504;DHT22;6316;48.118;-1.690;2023-11-19T13:55:17;16.70;99.90
12504;DHT22;6316;48.118;-1.690;2023-11-19T13:57:43;16.70;99.90
12504;DHT22;6316;48.118;-1.690;2023-11-19T14:00:10;16.70;99.90
12504;DHT22;6316;48.118;-1.690;2023-11-19T14:02:48;16.60;99.90
12504;DHT22;6316;48.118;-1.690;2023-11-19T14:05:14;16.60;99.90
12504;DHT22;6316;48.118;-1.690;2023-11-19T14:07:43;16.60;99.90
12504;DHT22;6316;48.118;-1.690;2023-11-19T14:10:09;16.50;99.90
12504;DHT22;6316;48.118;-1.690;2023-11-19T14:12:36;16.50;99.90
12504;DHT22;6316;48.118;-1.690;2023-11-19T14:15:03;16.50;99.90
12504;DHT22;6316;48.118;-1.690;2023-11-19T14:17:31;16.40;99.90
12504;DHT22;6316;48.118;-1.690;2023-11-19T14:19:57;16.30;99.90
12504;DHT22;6316;48.118;-1.690;2023-11-19T14:22:22;16.30;99.90
12504;DHT22;6316;48.118;-1.690;2023-11-19T14:24:48;16.30;99.90
12504;DHT22;6316;48.118;-1.690;2023-11-19T14:27:14;16.20;99.90
12504;DHT22;6316;48.118;-1.690;2023-11-19T14:29:39;16.20;99.90
12504;DHT22;6316;48.118;-1.690;2023-11-19T14:32:06;16.30;99.90
12504;DHT22;6316;48.118;-1.690;2023-11-19T14:34:32;16.40;99.90
12504;DHT22;6316;48.118;-1.690;2023-11-19T14:36:58;16.40;99.90
12504;DHT22;6316;48.118;-1.690;2023-11-19T14:39:24;16.40;99.90
12504;DHT22;6316;48.118;-1.690;2023-11-19T14:41:50;16.50;99.90
12504;DHT22;6316;48.118;-1.690;2023-11-19T14:44:16;16.50;99.90
12504;DHT22;6316;48.118;-1.690;2023-11-19T14:46:42;16.50;99.90
12504;DHT22;6316;48.118;-1.690;2023-11-19T14:49:08;16.50;99.90
12504;DHT22;6316;48.118;-1.690;2023-11-19T14:51:37;16.50;99.90
12504;DHT22;6316;48.118;-1.690;2023-11-19T14:54:04;16.40;99.90
12504;DHT22;6316;48.118;-1.690;2023-11-19T14:56:30;16.30;99.90
12504;DHT22;6316;48.118;-1.690;2023-11-19T14:58:55;16.30;99.90
12504;DHT22;6316;48.118;-1.690;2023-11-19T15:01:21;16.30;99.90
12504;DHT22;6316;48.118;-1.690;2023-11-19T15:03:46;16.20;99.90
12504;DHT22;6316;48.118;-1.690;2023-11-19T15:06:12;16.20;99.90
12504;DHT22;6316;48.118;-1.690;2023-11-19T15:08:38;16.20;99.90
12504;DHT22;6316;48.118;-1.690;2023-11-19T15:11:04;16.10;99.90
12504;DHT22;6316;48.118;-1.690;2023-11-19T15:13:31;16.10;99.90
12504;DHT22;6316;48.118;-1.690;2023-11-19T15:15:57;16.10;99.90
12504;DHT22;6316;48.118;-1.690;2023-11-19T15:18:23;16.00;99.90
12504;DHT22;6316;48.118;-1.690;2023-11-19T15:20:49;16.00;99.90
12504;DHT22;6316;48.118;-1.690;2023-11-19T15:23:14;16.00;99.90
12504;DHT22;6316;48.118;-1.690;2023-11-19T15:25:41;15.90;99.90
12504;DHT22;6316;48.118;-1.690;2023-11-19T15:28:07;15.80;99.90
12504;DHT22;6316;48.118;-1.690;2023-11-19T15:30:32;15.80;99.90
12504;DHT22;6316;48.118;-1.690;2023-11-19T15:32:58;15.80;99.90
12504;DHT22;6316;48.118;-1.690;2023-11-19T15:35:24;15.70;99.90
12504;DHT22;6316;48.118;-1.690;2023-11-19T15:37:50;15.70;99.90
12504;DHT22;6316;48.118;-1.690;2023-11-19T15:40:15;15.60;99.90
12504;DHT22;6316;48.118;-1.690;2023-11-19T15:42:41;15.60;99.90
12504;DHT22;6316;48.118;-1.690;2023-11-19T15:45:09;15.60;99.90
12504;DHT22;6316;48.118;-1.690;2023-11-19T15:47:35;15.50;99.90
12504;DHT22;6316;48.118;-1.690;2023-11-19T15:50:01;15.50;99.90
12504;DHT22;6316;48.118;-1.690;2023-11-19T15:52:28;15.50;99.90